Time;durP1;ratioP1;P1;durP2;ratioP2;P2;SDS_P1;SDS_P2;PMS_P1;PMS_P2;Temp;Humidity;BMP_temperature;BMP_pressure;BME280_temperature;BME280_humidity;BME280_pressure;Samples;Min_cycle;Max_cycle;Signal;HPM_P1;HPM_P2
2021/01/30 00:00:28;;;;;;;2.95;1.10;;;;;;;5.34;88.72;95624.53;5020447;28;20113;-64
2021/01/30 00:02:54;;;;;;;2.42;1.00;;;;;;;5.30;88.95;95624.47;5000865;28;20041;-64
2021/01/30 00:05:20;;;;;;;3.38;0.82;;;;;;;5.33;88.56;95629.19;5018805;28;20038;-65
2021/01/30 00:07:45;;;;;;;25.95;10.10;;;;;;;5.35;88.57;95637.75;5016736;28;20060;-64
2021/01/30 00:10:12;;;;;;;1.48;1.15;;;;;;;5.32;88.80;95615.97;5011426;28;20049;-64
2021/01/30 00:12:38;;;;;;;5.35;0.90;;;;;;;5.32;88.87;95627.59;4996477;28;20553;-63
2021/01/30 00:15:04;;;;;;;3.53;0.88;;;;;;;5.30;88.79;95634.53;5025983;28;20145;-65
2021/01/30 00:17:29;;;;;;;3.85;1.15;;;;;;;5.33;87.73;95625.66;5026299;28;20045;-64
2021/01/30 00:19:55;;;;;;;3.17;1.27;;;;;;;5.30;87.90;95624.47;5025514;28;20067;-63
2021/01/30 00:22:20;;;;;;;3.30;1.15;;;;;;;5.28;88.35;95640.31;5025114;28;20045;-63
2021/01/30 00:24:48;;;;;;;2.75;1.02;;;;;;;5.25;87.84;95634.81;5036550;28;20136;-64
2021/01/30 00:27:18;;;;;;;5.90;1.65;;;;;;;5.22;88.73;95639.06;5028372;28;20040;-63
2021/01/30 00:29:43;;;;;;;4.25;1.20;;;;;;;5.21;88.49;95644.84;5028824;28;20095;-64
2021/01/30 00:32:10;;;;;;;1.70;0.90;;;;;;;5.23;88.34;95651.47;5023025;28;20055;-63
2021/01/30 00:34:38;;;;;;;5.10;1.20;;;;;;;5.20;88.84;95657.59;5033023;28;20474;-64
2021/01/30 00:37:12;;;;;;;1.52;0.90;;;;;;;5.24;88.55;95650.34;5012367;28;20096;-66
2021/01/30 00:39:38;;;;;;;3.83;1.13;;;;;;;5.22;89.11;95651.81;5030998;28;20049;-64
2021/01/30 00:42:06;;;;;;;2.72;1.00;;;;;;;5.27;88.35;95654.25;5043095;28;20049;-66
2021/01/30 00:44:31;;;;;;;2.45;0.98;;;;;;;5.19;89.13;95658.75;5033464;28;20051;-64
2021/01/30 00:46:57;;;;;;;2.55;1.05;;;;;;;5.21;89.09;95669.25;5037972;28;20043;-64
2021/01/30 00:49:23;;;;;;;5.22;1.13;;;;;;;5.24;89.30;95669.34;5038618;28;20724;-64
2021/01/30 00:51:49;;;;;;;2.20;0.98;;;;;;;5.18;89.63;95668.03;5044289;28;20548;-64
2021/01/30 00:54:15;;;;;;;3.75;1.00;;;;;;;5.17;89.45;95652.91;5036364;28;20056;-63
2021/01/30 00:56:40;;;;;;;4.07;1.10;;;;;;;5.13;89.92;95666.41;5032166;28;20048;-63
2021/01/30 00:59:06;;;;;;;10.00;3.22;;;;;;;5.16;89.90;95664.91;5026555;28;20049;-66
2021/01/30 01:01:39;;;;;;;7.00;1.40;;;;;;;5.14;89.91;95681.53;5032899;28;20061;-64
2021/01/30 01:04:06;;;;;;;6.93;1.75;;;;;;;5.15;89.83;95682.34;5038909;28;20045;-63
2021/01/30 01:06:32;;;;;;;5.50;1.00;;;;;;;5.14;90.32;95678.81;5036342;28;20118;-65
2021/01/30 01:08:58;;;;;;;4.47;1.10;;;;;;;5.23;88.80;95678.63;5030011;28;20120;-64
2021/01/30 01:11:24;;;;;;;3.75;1.30;;;;;;;5.28;88.54;95688.41;5012242;28;20616;-65
2021/01/30 01:13:49;;;;;;;2.50;1.02;;;;;;;5.26;88.44;95688.78;5036230;28;20045;-65
2021/01/30 01:16:15;;;;;;;2.83;0.93;;;;;;;5.26;87.36;95683.34;5028177;28;20514;-65
2021/01/30 01:18:40;;;;;;;1.90;1.00;;;;;;;5.28;87.57;95683.75;5032731;28;20586;-64
2021/01/30 01:21:06;;;;;;;3.88;0.85;;;;;;;5.30;87.02;95697.00;5027581;28;20076;-64
2021/01/30 01:23:31;;;;;;;4.35;0.85;;;;;;;5.33;87.27;95690.81;5030931;28;20104;-64
2021/01/30 01:25:56;;;;;;;4.82;0.90;;;;;;;5.34;87.47;95692.41;5030172;28;20037;-63
2021/01/30 01:28:22;;;;;;;4.65;1.23;;;;;;;5.41;87.01;95703.41;5033687;28;20422;-64
2021/01/30 01:30:47;;;;;;;3.10;1.10;;;;;;;5.30;88.41;95695.06;5031044;28;20421;-64
2021/01/30 01:33:12;;;;;;;2.28;1.33;;;;;;;5.26;89.03;95694.19;5034702;28;20041;-65
2021/01/30 01:35:38;;;;;;;2.67;1.10;;;;;;;5.20;89.60;95701.03;5031489;28;20048;-64
2021/01/30 01:38:03;;;;;;;5.10;1.00;;;;;;;5.21;89.36;95704.56;5018450;28;20049;-65
2021/01/30 01:40:40;;;;;;;4.32;1.10;;;;;;;5.23;89.04;95699.56;5030913;28;20048;-64
2021/01/30 01:43:17;;;;;;;1.40;0.90;;;;;;;5.15;89.62;95687.78;5034293;28;20101;-66
2021/01/30 01:45:51;;;;;;;6.03;1.35;;;;;;;5.23;89.30;95689.47;5021801;28;20052;-64
2021/01/30 01:48:26;;;;;;;4.80;1.30;;;;;;;5.20;88.71;95695.59;5016157;28;20045;-64
2021/01/30 01:50:52;;;;;;;2.20;1.08;;;;;;;5.19;88.79;95694.06;5024248;28;20501;-65
2021/01/30 01:53:23;;;;;;;3.00;0.85;;;;;;;5.17;89.10;95688.97;5026980;28;20045;-63
2021/01/30 01:55:52;;;;;;;2.72;0.90;;;;;;;5.21;87.83;95689.06;5021732;28;20049;-64
2021/01/30 01:58:21;;;;;;;5.22;1.10;;;;;;;5.29;87.54;95693.47;5016394;28;20487;-64
2021/01/30 02:00:48;;;;;;;2.00;1.30;;;;;;;5.25;87.67;95700.75;5001585;28;20042;-63
2021/01/30 02:03:15;;;;;;;2.58;1.00;;;;;;;5.27;87.15;95693.03;4998054;28;20498;-63
2021/01/30 02:05:41;;;;;;;1.83;0.90;;;;;;;5.25;87.58;95689.13;5020480;28;20541;-66
2021/01/30 02:08:10;;;;;;;2.55;0.93;;;;;;;5.34;86.16;95687.75;5015876;28;20064;-65
2021/01/30 02:10:42;;;;;;;3.20;1.10;;;;;;;5.24;86.65;95682.09;5022157;28;20087;-64
2021/01/30 02:13:16;;;;;;;4.63;1.10;;;;;;;5.27;86.76;95682.19;5016605;28;20060;-64
2021/01/30 02:15:48;;;;;;;4.57;0.90;;;;;;;5.22;86.63;95681.69;5003720;28;20038;-64
2021/01/30 02:18:24;;;;;;;7.03;1.63;;;;;;;5.28;85.85;95683.00;5013932;28;20183;-65
2021/01/30 02:21:19;;;;;;;3.70;1.08;;;;;;;5.28;85.72;95683.75;5003539;28;20037;-63
2021/01/30 02:24:28;;;;;;;5.65;2.17;;;;;;;5.23;86.17;95683.28;5020556;28;20037;-66
2021/01/30 02:27:29;;;;;;;3.15;0.80;;;;;;;5.19;86.39;95680.47;5034759;28;20041;-64
2021/01/30 02:30:16;;;;;;;5.38;1.38;;;;;;;5.27;85.00;95676.75;4952672;28;20048;-62
2021/01/30 02:33:10;;;;;;;5.18;1.00;;;;;;;5.27;85.00;95670.53;5021312;28;20430;-65
2021/01/30 02:36:01;;;;;;;10.27;1.23;;;;;;;5.23;84.60;95662.31;4949371;28;20047;-64
2021/01/30 02:38:29;;;;;;;8.05;1.20;;;;;;;5.24;83.79;95671.25;5018400;28;20045;-63
2021/01/30 02:41:02;;;;;;;3.03;0.82;;;;;;;5.27;83.34;95675.97;5041265;28;20559;-62
2021/01/30 02:43:34;;;;;;;6.13;1.17;;;;;;;5.22;84.14;95668.91;5036360;28;20072;-64
2021/01/30 02:46:05;;;;;;;3.80;1.17;;;;;;;5.22;83.69;95668.91;5023308;28;20148;-62
2021/01/30 02:48:37;;;;;;;3.10;1.02;;;;;;;5.19;83.87;95666.13;5039057;28;20037;-63
2021/01/30 02:51:06;;;;;;;3.58;0.88;;;;;;;5.14;84.35;95646.25;5039492;28;20071;-67
2021/01/30 02:53:36;;;;;;;2.95;1.27;;;;;;;5.09;84.31;95648.47;5040321;28;20482;-63
2021/01/30 02:56:05;;;;;;;4.55;1.00;;;;;;;5.02;84.51;95659.16;5040890;28;20135;-63
2021/01/30 02:58:38;;;;;;;6.70;1.03;;;;;;;5.01;84.56;95658.41;5039584;28;20047;-62
2021/01/30 03:01:04;;;;;;;6.95;1.33;;;;;;;5.23;82.67;95651.47;5036929;28;20390;-66
2021/01/30 03:03:30;;;;;;;5.30;1.60;;;;;;;5.21;83.28;95637.47;5022661;28;20148;-64
2021/01/30 03:06:03;;;;;;;3.80;1.13;;;;;;;5.10;83.50;95648.13;5041708;28;20453;-64
2021/01/30 03:08:59;;;;;;;7.78;1.50;;;;;;;5.06;83.70;95644.53;5038065;28;20049;-64
2021/01/30 03:11:34;;;;;;;2.97;0.95;;;;;;;5.03;83.93;95639.03;5011886;28;20946;-65
2021/01/30 03:14:10;;;;;;;2.78;0.88;;;;;;;5.10;83.72;95647.34;5040498;28;20045;-64
2021/01/30 03:16:39;;;;;;;3.85;0.85;;;;;;;5.07;84.41;95646.09;5039966;28;20505;-63
2021/01/30 03:19:27;;;;;;;2.17;1.10;;;;;;;5.06;83.86;95649.97;5025570;28;20047;-66
2021/01/30 03:22:07;;;;;;;3.47;0.90;;;;;;;5.06;83.53;95635.59;5033672;28;20045;-65
2021/01/30 03:24:37;;;;;;;1.77;0.90;;;;;;;5.14;82.80;95643.53;5032189;28;20513;-64
2021/01/30 03:27:03;;;;;;;;;;;;;;;5.07;83.25;95640.69;5019687;28;20061;-66
2021/01/30 03:29:28;;;;;;;8.23;1.00;;;;;;;5.03;83.87;95647.97;5017926;28;20372;-62
2021/01/30 03:31:54;;;;;;;7.47;1.05;;;;;;;5.03;83.49;95652.63;5002424;28;20403;-63
2021/01/30 03:34:19;;;;;;;4.43;1.10;;;;;;;5.03;83.34;95647.97;5016075;28;20493;-64
2021/01/30 03:36:45;;;;;;;1.92;0.80;;;;;;;5.02;83.81;95643.66;5003620;28;20045;-61
2021/01/30 03:39:17;;;;;;;4.18;1.17;;;;;;;5.09;83.55;95638.38;5015055;28;20498;-63
2021/01/30 03:41:44;;;;;;;5.68;1.10;;;;;;;5.09;83.14;95638.38;5032246;28;20140;-64
2021/01/30 03:44:13;;;;;;;4.85;0.98;;;;;;;5.01;83.66;95642.09;5034263;28;20102;-63
2021/01/30 03:46:40;;;;;;;9.55;1.40;;;;;;;5.02;83.89;95643.66;5026341;28;20048;-64
2021/01/30 03:49:05;;;;;;;5.82;1.42;;;;;;;5.03;83.00;95634.41;5022638;28;20115;-63
2021/01/30 03:51:31;;;;;;;4.72;1.10;;;;;;;4.96;83.47;95634.25;5024619;28;20616;-64
2021/01/30 03:53:56;;;;;;;4.88;1.98;;;;;;;5.00;83.34;95626.97;5020938;28;20064;-62
2021/01/30 03:56:21;;;;;;;5.70;1.98;;;;;;;4.98;83.60;95637.38;5014988;28;20706;-64
2021/01/30 03:58:47;;;;;;;4.28;0.90;;;;;;;4.91;84.02;95629.09;5023179;28;20083;-62
2021/01/30 04:01:13;;;;;;;4.55;1.05;;;;;;;4.89;83.92;95631.38;5018939;28;20596;-64
2021/01/30 04:03:39;;;;;;;2.22;0.90;;;;;;;4.90;84.10;95632.97;5006996;28;20045;-65
2021/01/30 04:06:09;;;;;;;5.57;1.15;;;;;;;4.87;84.15;95625.53;5022249;28;20431;-67
2021/01/30 04:08:35;;;;;;;2.67;0.85;;;;;;;4.81;84.16;95618.78;5025242;28;20492;-65
2021/01/30 04:11:00;;;;;;;6.00;1.20;;;;;;;4.82;84.42;95632.00;5030904;28;20041;-65
2021/01/30 04:13:26;;;;;;;6.93;1.30;;;;;;;4.78;84.82;95620.31;5018415;28;20041;-65
2021/01/30 04:15:51;;;;;;;6.40;1.20;;;;;;;4.85;84.34;95617.75;5025638;28;20761;-63
2021/01/30 04:18:17;;;;;;;3.88;1.00;;;;;;;4.83;83.96;95609.19;5019783;28;20045;-63
2021/01/30 04:20:42;;;;;;;7.45;1.55;;;;;;;4.90;83.74;95601.19;5024259;28;20033;-65
2021/01/30 04:23:09;;;;;;;7.00;2.08;;;;;;;4.86;83.31;95597.63;5018200;28;20129;-63
2021/01/30 04:25:35;;;;;;;6.05;1.40;;;;;;;4.84;83.51;95594.47;5023172;28;20048;-66
2021/01/30 04:28:01;;;;;;;3.30;0.95;;;;;;;4.81;84.30;95599.81;5024112;28;20045;-62
2021/01/30 04:30:29;;;;;;;4.75;1.45;;;;;;;4.77;84.05;95586.97;5017581;28;20117;-61
2021/01/30 04:32:55;;;;;;;6.40;1.40;;;;;;;4.77;84.05;95580.75;5025002;28;20414;-63
2021/01/30 04:35:24;;;;;;;2.67;0.82;;;;;;;4.77;84.25;95580.75;5014241;28;20107;-64
2021/01/30 04:37:50;;;;;;;;;;;;;;;4.76;84.03;95573.75;5023934;28;20100;-62
2021/01/30 04:40:23;;;;;;;7.60;1.30;;;;;;;4.76;84.30;95569.13;5018970;28;19916;-61
2021/01/30 04:42:58;;;;;;;7.00;2.65;;;;;;;4.77;83.94;95567.19;5023175;28;20284;-62
2021/01/30 04:45:58;;;;;;;9.68;2.10;;;;;;;4.72;84.71;95572.91;4997986;28;20518;-62
2021/01/30 04:48:49;;;;;;;6.63;1.35;;;;;;;4.74;85.15;95557.84;5018238;28;20132;-62
2021/01/30 04:51:33;;;;;;;8.20;1.48;;;;;;;4.71;84.51;95555.84;5017697;28;20045;-63
2021/01/30 04:54:30;;;;;;;3.97;1.10;;;;;;;4.67;85.14;95548.78;5023244;28;20075;-66
2021/01/30 04:57:11;;;;;;;6.72;1.25;;;;;;;4.64;85.38;95541.34;5021851;28;20128;-64
2021/01/30 05:00:00;;;;;;;6.78;1.25;;;;;;;4.60;85.32;95542.06;5022132;28;20045;-62
2021/01/30 05:02:32;;;;;;;;;;;;;;;4.63;84.87;95537.84;5000287;28;20081;-63
2021/01/30 05:04:59;;;;;;;2.70;1.10;;;;;;;4.64;85.06;95533.22;5022991;28;19913;-64
2021/01/30 05:07:34;;;;;;;8.63;1.48;;;;;;;4.74;84.30;95543.50;5016525;28;20042;-61
2021/01/30 05:10:04;;;;;;;3.35;1.10;;;;;;;4.68;84.13;95532.16;5023462;28;20608;-63
2021/01/30 05:12:40;;;;;;;3.30;1.17;;;;;;;4.64;84.55;95522.38;5022366;28;20060;-63
2021/01/30 05:15:36;;;;;;;8.35;1.20;;;;;;;4.64;84.28;95520.44;5018143;28;20037;-64
2021/01/30 05:18:23;;;;;;;6.88;1.10;;;;;;;4.62;84.36;95525.44;4999930;28;20033;-67
2021/01/30 05:20:59;;;;;;;5.03;1.42;;;;;;;4.60;84.54;95530.44;5023265;28;20478;-64
2021/01/30 05:23:26;;;;;;;5.45;1.13;;;;;;;4.61;84.58;95526.59;5017414;28;20065;-65
2021/01/30 05:26:02;;;;;;;4.53;1.45;;;;;;;4.66;84.63;95526.28;5023487;28;20045;-64
2021/01/30 05:28:59;;;;;;;8.32;1.50;;;;;;;4.65;84.21;95532.84;5018955;28;20045;-63
2021/01/30 05:32:01;;;;;;;6.93;1.63;;;;;;;4.62;84.68;95524.66;5017421;28;20390;-63
2021/01/30 05:34:52;;;;;;;5.63;1.05;;;;;;;4.68;84.62;95518.59;5018425;28;20069;-63
2021/01/30 05:37:23;;;;;;;5.63;1.33;;;;;;;4.66;84.95;95514.66;5017592;28;20037;-62
2021/01/30 05:40:26;;;;;;;9.77;1.58;;;;;;;4.66;84.56;95515.44;5022478;28;20107;-64
2021/01/30 05:43:01;;;;;;;10.60;1.50;;;;;;;4.65;84.64;95516.59;5004311;28;20099;-64
2021/01/30 05:45:47;;;;;;;3.67;0.98;;;;;;;4.69;84.62;95508.53;5017347;28;20037;-62
2021/01/30 05:48:16;;;;;;;3.33;1.08;;;;;;;4.77;83.92;95502.88;4999943;28;20061;-62
2021/01/30 05:50:42;;;;;;;6.28;1.67;;;;;;;4.76;84.31;95495.88;5022430;28;20037;-62
2021/01/30 05:53:10;;;;;;;4.05;1.10;;;;;;;4.70;84.20;95488.38;5017393;28;20037;-64
2021/01/30 05:55:37;;;;;;;7.40;1.60;;;;;;;4.81;83.68;95488.59;5036595;28;20042;-63
2021/01/30 05:58:07;;;;;;;6.97;1.80;;;;;;;4.84;83.44;95485.16;5013785;28;20049;-65
2021/01/30 06:00:33;;;;;;;6.63;1.75;;;;;;;4.79;83.67;95480.81;5032859;28;20083;-62
2021/01/30 06:03:06;;;;;;;6.15;1.35;;;;;;;4.90;83.25;95484.53;5027087;28;20037;-63
2021/01/30 06:05:48;;;;;;;5.78;1.15;;;;;;;4.99;82.79;95476.16;5014852;28;20048;-62
2021/01/30 06:08:30;;;;;;;4.50;1.73;;;;;;;5.06;82.41;95473.56;5033700;28;20477;-64
2021/01/30 06:11:06;;;;;;;14.02;1.40;;;;;;;4.99;83.06;95468.00;5042489;28;20183;-64
2021/01/30 06:13:32;;;;;;;7.22;1.65;;;;;;;4.94;83.29;95455.50;5041698;28;20088;-65
2021/01/30 06:16:00;;;;;;;3.10;1.20;;;;;;;4.93;83.33;95459.38;5027299;28;20128;-65
2021/01/30 06:18:38;;;;;;;3.42;1.17;;;;;;;5.03;82.81;95451.78;5037605;28;20068;-64
2021/01/30 06:21:06;;;;;;;6.35;1.30;;;;;;;4.86;84.13;95455.75;5037005;28;20117;-67
2021/01/30 06:23:32;;;;;;;6.15;1.40;;;;;;;4.81;84.13;95453.31;5028720;28;20069;-63
2021/01/30 06:26:20;;;;;;;4.70;1.10;;;;;;;4.80;84.09;95452.53;5028444;28;20074;-65
2021/01/30 06:29:01;;;;;;;10.13;1.30;;;;;;;4.83;83.83;95454.53;5001664;28;20045;-63
2021/01/30 06:31:39;;;;;;;11.35;3.65;;;;;;;4.85;83.86;95454.97;5001149;28;20041;-64
2021/01/30 06:34:28;;;;;;;5.38;1.30;;;;;;;4.85;84.25;95451.47;5028179;28;20069;-66
2021/01/30 06:36:55;;;;;;;6.03;1.10;;;;;;;4.90;83.25;95449.25;5028409;28;20045;-61
2021/01/30 06:39:42;;;;;;;7.25;1.65;;;;;;;4.78;84.32;95443.97;5016003;28;20052;-63
2021/01/30 06:42:25;;;;;;;6.00;1.48;;;;;;;4.75;84.53;95455.53;5016520;28;20050;-61
2021/01/30 06:45:01;;;;;;;4.20;1.38;;;;;;;4.85;84.05;95451.47;5021835;28;20406;-64
2021/01/30 06:47:26;;;;;;;8.15;2.25;;;;;;;5.01;82.81;95445.94;5016052;28;20033;-63
2021/01/30 06:49:55;;;;;;;7.30;1.70;;;;;;;5.00;82.98;95444.38;5025329;28;20041;-63
2021/01/30 06:52:22;;;;;;;9.23;2.17;;;;;;;5.02;82.99;95453.69;5019711;28;20049;-62
2021/01/30 06:55:07;;;;;;;8.73;2.00;;;;;;;4.94;83.21;95455.50;5032385;28;20380;-61
2021/01/30 06:57:36;;;;;;;9.48;1.95;;;;;;;5.02;82.87;95455.63;5039923;28;20124;-64
2021/01/30 07:00:17;;;;;;;6.82;1.40;;;;;;;5.03;83.10;95444.44;5023327;28;20489;-63
2021/01/30 07:02:48;;;;;;;6.85;1.88;;;;;;;4.98;83.11;95444.72;5050677;28;20572;-64
2021/01/30 07:05:32;;;;;;;8.70;1.70;;;;;;;5.00;83.12;95434.28;5026282;28;20053;-64
2021/01/30 07:08:51;;;;;;;3.17;1.50;;;;;;;5.03;81.93;95430.09;5021208;28;20037;-64
2021/01/30 07:11:47;;;;;;;12.30;2.75;;;;;;;5.03;82.16;95427.38;4954931;28;20039;-64
2021/01/30 07:14:27;;;;;;;5.10;1.30;;;;;;;5.05;82.45;95419.66;4953946;28;20555;-66
2021/01/30 07:17:02;;;;;;;3.65;1.15;;;;;;;4.90;82.51;95419.41;5001152;28;20501;-63
2021/01/30 07:19:42;;;;;;;8.60;1.25;;;;;;;4.87;83.51;95416.63;5012276;28;20067;-64
2021/01/30 07:22:11;;;;;;;;;;;;;;;4.95;82.75;95415.59;5027366;28;20136;-64
2021/01/30 07:24:47;;;;;;;6.22;1.10;;;;;;;5.10;81.92;95406.56;5032168;28;19913;-63
2021/01/30 07:27:22;;;;;;;5.47;1.50;;;;;;;5.14;81.35;95403.91;5018030;28;20041;-65
2021/01/30 07:30:16;;;;;;;9.57;2.53;;;;;;;4.99;82.00;95392.03;5040884;28;20522;-65
2021/01/30 07:32:55;;;;;;;9.95;1.90;;;;;;;5.00;82.18;95381.94;5038803;28;20175;-65
2021/01/30 07:35:26;;;;;;;8.63;1.63;;;;;;;4.98;82.98;95390.44;5029343;28;20045;-63
2021/01/30 07:38:18;;;;;;;8.70;1.50;;;;;;;4.97;82.76;95383.47;5017068;28;20060;-66
2021/01/30 07:40:51;;;;;;;5.55;1.50;;;;;;;4.92;83.75;95379.13;5024639;28;20041;-65
2021/01/30 07:43:24;;;;;;;6.60;2.05;;;;;;;4.93;83.72;95371.75;5019133;28;20045;-63
2021/01/30 07:46:34;;;;;;;9.48;1.80;;;;;;;4.85;83.91;95373.56;5024629;28;20044;-66
2021/01/30 07:49:07;;;;;;;7.60;2.53;;;;;;;4.66;84.31;95362.78;5000196;28;20496;-63
2021/01/30 07:51:55;;;;;;;20.92;15.50;;;;;;;4.48;84.77;95354.31;5037341;28;20153;-65
2021/01/30 07:54:21;;;;;;;6.68;3.13;;;;;;;4.57;84.65;95363.81;5032279;28;20041;-64
2021/01/30 07:57:12;;;;;;;10.65;1.83;;;;;;;4.72;85.36;95364.84;5024217;28;20041;-66
2021/01/30 08:00:08;;;;;;;7.43;1.33;;;;;;;5.08;84.02;95370.09;5021969;28;20069;-65
2021/01/30 08:02:53;;;;;;;6.90;1.70;;;;;;;5.11;83.66;95364.72;5021619;28;20057;-65
2021/01/30 08:05:33;;;;;;;7.95;1.67;;;;;;;5.15;83.42;95356.63;5018039;28;20045;-64
2021/01/30 08:08:41;;;;;;;8.50;1.45;;;;;;;5.14;84.01;95363.19;5014027;28;20627;-64
2021/01/30 08:11:25;;;;;;;5.88;1.70;;;;;;;5.23;84.30;95360.22;4957462;28;20042;-65
2021/01/30 08:14:32;;;;;;;7.07;1.70;;;;;;;5.34;82.86;95359.22;5003961;28;20581;-64
2021/01/30 08:17:19;;;;;;;8.73;2.00;;;;;;;5.35;83.39;95349.94;5019189;23;20133;-62
2021/01/30 08:19:51;;;;;;;11.10;2.47;;;;;;;5.33;84.05;95352.25;5020827;28;20041;-62
2021/01/30 08:22:39;;;;;;;4.13;2.10;;;;;;;5.32;83.52;95347.94;5017776;28;20128;-62
2021/01/30 08:25:19;;;;;;;9.02;1.83;;;;;;;5.29;83.89;95345.94;5004228;28;20047;-62
2021/01/30 08:27:48;;;;;;;;;;;;;;;5.43;83.36;95350.03;5024757;28;20730;-63
2021/01/30 08:30:19;;;;;;;3.60;1.63;;;;;;;5.56;83.21;95343.22;5018114;28;20331;-62
2021/01/30 08:33:06;;;;;;;10.18;2.05;;;;;;;5.65;82.73;95334.81;5019451;28;20134;-62
2021/01/30 08:35:31;;;;;;;7.65;2.65;;;;;;;5.75;82.66;95331.47;5022533;28;20091;-62
2021/01/30 08:38:16;;;;;;;7.65;2.42;;;;;;;5.91;81.82;95336.72;5023982;28;20506;-62
2021/01/30 08:40:42;;;;;;;5.55;2.05;;;;;;;6.08;80.25;95340.81;5024688;28;20120;-62
2021/01/30 08:43:08;;;;;;;7.35;3.67;;;;;;;6.11;80.88;95335.44;5021870;28;20069;-62
2021/01/30 08:45:34;;;;;;;7.72;2.85;;;;;;;5.72;82.14;95319.38;5023798;28;20111;-62
2021/01/30 08:48:06;;;;;;;6.75;2.97;;;;;;;5.42;83.30;95324.03;5018639;28;20046;-62
2021/01/30 08:50:47;;;;;;;12.35;3.67;;;;;;;5.45;82.93;95331.44;5021829;28;20065;-61
2021/01/30 08:53:16;;;;;;;8.18;3.42;;;;;;;5.42;82.60;95324.84;5016214;28;20120;-62
2021/01/30 08:55:44;;;;;;;7.07;2.50;;;;;;;5.23;84.42;95317.56;5024223;28;20041;-62
2021/01/30 08:58:37;;;;;;;13.90;3.80;;;;;;;5.02;84.09;95320.72;5021145;28;20056;-62
2021/01/30 09:01:20;;;;;;;8.15;2.25;;;;;;;4.92;84.79;95302.38;5020942;28;20256;-62
2021/01/30 09:03:52;;;;;;;9.75;3.25;;;;;;;4.97;85.14;95321.06;5003450;28;20045;-62
2021/01/30 09:06:39;;;;;;;10.32;3.10;;;;;;;5.28;83.88;95317.25;5013203;28;20040;-62
2021/01/30 09:09:12;;;;;;;11.25;2.85;;;;;;;5.43;83.48;95315.53;5018585;28;20112;-60
2021/01/30 09:11:53;;;;;;;7.15;2.83;;;;;;;5.39;83.77;95311.19;5021743;28;20397;-62
2021/01/30 09:14:19;;;;;;;8.63;2.90;;;;;;;5.57;82.79;95316.88;5018184;28;20042;-62
2021/01/30 09:17:16;;;;;;;6.95;2.65;;;;;;;5.73;82.71;95328.34;5023649;28;20038;-61
2021/01/30 09:20:07;;;;;;;8.88;2.60;;;;;;;5.98;82.23;95322.44;5002089;28;20136;-61
2021/01/30 09:22:35;;;;;;;8.35;2.97;;;;;;;6.07;81.97;95326.47;5022047;28;20041;-62
2021/01/30 09:25:15;;;;;;;14.75;5.70;;;;;;;6.09;81.44;95320.66;5016105;28;20045;-63
2021/01/30 09:28:07;;;;;;;19.15;4.60;;;;;;;6.31;80.95;95316.22;5013714;28;20040;-61
2021/01/30 09:31:00;;;;;;;8.68;1.90;;;;;;;6.44;79.17;95303.16;5023060;28;20041;-62
2021/01/30 09:33:34;;;;;;;9.45;3.58;;;;;;;6.10;81.99;95301.25;5004959;28;20072;-61
2021/01/30 09:36:11;;;;;;;7.93;2.58;;;;;;;6.67;78.78;95301.03;5021945;28;20072;-63
2021/01/30 09:38:41;;;;;;;7.55;1.33;;;;;;;7.10;75.85;95294.38;5021766;28;20203;-61
2021/01/30 09:41:31;;;;;;;9.50;2.20;;;;;;;6.94;76.82;95246.44;5017551;28;20065;-61
2021/01/30 09:44:18;;;;;;;11.20;2.60;;;;;;;6.73;78.93;95241.59;5022230;28;20041;-62
2021/01/30 09:46:47;;;;;;;6.55;1.95;;;;;;;6.05;79.82;95217.31;5021965;28;20125;-63
2021/01/30 09:49:23;;;;;;;5.93;2.15;;;;;;;6.06;80.97;95204.50;5009783;28;20095;-62
2021/01/30 09:51:50;;;;;;;6.30;2.28;;;;;;;6.22;80.12;95223.31;5022091;28;20080;-62
2021/01/30 09:54:17;;;;;;;8.75;2.22;;;;;;;6.20;79.01;95225.63;5016891;28;20041;-60
2021/01/30 09:56:44;;;;;;;5.78;2.03;;;;;;;6.00;79.92;95223.09;5021951;28;20041;-61
2021/01/30 09:59:14;;;;;;;9.65;1.75;;;;;;;6.32;77.14;95233.50;5017365;28;20038;-61
2021/01/30 10:01:44;;;;;;;15.60;3.03;;;;;;;6.77;76.28;95264.19;5012126;28;20128;-62
2021/01/30 10:04:28;;;;;;;13.23;3.92;;;;;;;6.96;75.12;95238.66;5010934;28;20053;-61
2021/01/30 10:07:09;;;;;;;8.18;2.78;;;;;;;6.98;74.74;95222.72;5022690;28;20037;-61
2021/01/30 10:09:44;;;;;;;7.53;2.70;;;;;;;7.11;75.32;95253.13;5011730;28;20440;-62
2021/01/30 10:12:11;;;;;;;10.32;2.50;;;;;;;7.19;74.99;95260.22;5012818;28;20549;-62
2021/01/30 10:14:40;;;;;;;6.78;1.83;;;;;;;7.10;74.08;95240.69;5009457;28;20137;-62
2021/01/30 10:17:13;;;;;;;9.15;3.00;;;;;;;7.33;73.98;95234.19;5013337;28;20041;-62
2021/01/30 10:19:39;;;;;;;12.82;3.38;;;;;;;7.53;73.55;95224.59;5021217;28;20049;-61
2021/01/30 10:22:19;;;;;;;7.70;1.73;;;;;;;7.49;73.21;95228.44;5017293;28;20517;-61
2021/01/30 10:24:46;;;;;;;9.77;2.38;;;;;;;7.52;74.03;95228.47;5032832;28;20049;-61
2021/01/30 10:27:20;;;;;;;6.72;2.10;;;;;;;7.31;74.33;95223.72;5031257;28;20038;-62
2021/01/30 10:29:46;;;;;;;7.50;2.00;;;;;;;7.11;75.18;95225.91;5010738;28;20125;-62
2021/01/30 10:32:15;;;;;;;10.20;2.30;;;;;;;7.37;74.78;95241.25;5019405;28;20140;-63
2021/01/30 10:34:58;;;;;;;4.65;2.15;;;;;;;7.21;76.41;95238.03;5001196;28;20443;-63
2021/01/30 10:37:36;;;;;;;5.40;2.50;;;;;;;7.27;75.33;95223.69;5006449;28;20683;-63
2021/01/30 10:40:07;;;;;;;7.97;2.20;;;;;;;7.31;74.33;95222.91;5020796;28;20401;-62
2021/01/30 10:42:34;;;;;;;9.10;2.17;;;;;;;7.28;74.69;95211.63;5021360;28;20482;-62
2021/01/30 10:45:12;;;;;;;5.72;2.30;;;;;;;7.38;74.81;95203.88;5022015;28;20173;-60
2021/01/30 10:47:37;;;;;;;4.03;2.28;;;;;;;7.49;74.62;95196.56;5001865;28;20050;-65
2021/01/30 10:50:12;;;;;;;9.43;2.50;;;;;;;6.50;78.00;95182.75;4998384;28;20057;-61
2021/01/30 10:52:38;;;;;;;6.57;2.40;;;;;;;6.32;78.72;95190.00;5001343;28;20044;-63
2021/01/30 10:55:31;;;;;;;8.32;2.47;;;;;;;6.19;81.43;95186.75;5003655;28;20474;-61
2021/01/30 10:58:32;;;;;;;7.32;3.03;;;;;;;5.99;81.47;95172.59;4994538;28;20132;-61
2021/01/30 11:01:00;;;;;;;7.00;2.80;;;;;;;6.05;81.75;95178.47;4942952;28;20159;-61
2021/01/30 11:03:40;;;;;;;6.75;3.00;;;;;;;5.90;81.49;95178.31;5002926;28;20045;-59
2021/01/30 11:06:35;;;;;;;9.00;4.82;;;;;;;5.79;83.77;95174.72;5016311;28;20562;-60
2021/01/30 11:09:16;;;;;;;11.80;2.72;;;;;;;6.04;82.65;95174.97;5021601;28;20120;-61
2021/01/30 11:11:44;;;;;;;6.32;2.58;;;;;;;6.11;81.85;95172.34;5021070;28;20061;-62
2021/01/30 11:14:27;;;;;;;5.45;2.75;;;;;;;6.02;82.18;95166.44;5009860;28;20033;-62
2021/01/30 11:16:53;;;;;;;5.47;2.40;;;;;;;5.88;82.01;95160.81;5029476;28;20103;-62
2021/01/30 11:19:27;;;;;;;9.00;3.08;;;;;;;5.82;83.28;95156.91;5025946;28;20055;-62
2021/01/30 11:22:06;;;;;;;6.07;3.03;;;;;;;5.86;85.19;95155.00;5020935;28;20041;-62
2021/01/30 11:24:33;;;;;;;8.80;3.00;;;;;;;5.97;83.31;95155.91;5018664;28;20668;-63
2021/01/30 11:26:59;;;;;;;9.32;3.10;;;;;;;6.19;83.63;95148.69;5019747;28;20402;-63
2021/01/30 11:29:38;;;;;;;8.30;3.50;;;;;;;6.22;83.67;95150.66;5007476;28;20060;-62
2021/01/30 11:32:11;;;;;;;4.80;2.53;;;;;;;6.53;82.89;95150.53;5009601;28;20083;-63
2021/01/30 11:34:38;;;;;;;5.60;2.70;;;;;;;6.61;81.81;95146.66;5016800;28;20080;-62
2021/01/30 11:37:04;;;;;;;4.40;1.83;;;;;;;6.66;79.71;95133.53;5016406;28;20056;-63
2021/01/30 11:39:34;;;;;;;8.20;2.85;;;;;;;6.72;79.77;95133.13;5024506;28;20045;-62
2021/01/30 11:41:59;;;;;;;8.65;2.33;;;;;;;6.81;78.90;95133.59;5025027;28;20486;-64
2021/01/30 11:44:26;;;;;;;5.80;2.55;;;;;;;6.89;77.97;95127.03;5017791;28;20041;-64
2021/01/30 11:46:52;;;;;;;13.82;2.70;;;;;;;6.59;79.99;95129.94;5018255;28;20041;-64
2021/01/30 11:49:18;;;;;;;8.60;2.42;;;;;;;6.47;81.39;95120.94;5015435;28;20042;-64
2021/01/30 11:51:43;;;;;;;6.93;2.45;;;;;;;6.51;83.08;95119.03;5021219;28;20038;-64
2021/01/30 11:54:11;;;;;;;7.55;2.03;;;;;;;6.75;82.28;95124.22;5016627;28;20080;-64
2021/01/30 11:56:37;;;;;;;9.13;3.28;;;;;;;6.98;80.01;95113.06;5019525;28;20048;-63
2021/01/30 11:59:03;;;;;;;6.68;1.95;;;;;;;7.28;78.50;95112.81;5017021;28;20050;-65
2021/01/30 12:01:31;;;;;;;6.47;2.20;;;;;;;7.16;79.06;95108.47;5008904;28;20540;-63
2021/01/30 12:03:57;;;;;;;7.32;2.75;;;;;;;7.17;80.33;95110.06;5014667;28;20496;-61
2021/01/30 12:06:22;;;;;;;9.43;3.22;;;;;;;7.26;80.52;95102.31;4994736;28;20222;-64
2021/01/30 12:08:48;;;;;;;8.48;2.30;;;;;;;7.31;80.13;95101.16;5023650;28;20100;-65
2021/01/30 12:11:13;;;;;;;8.52;2.60;;;;;;;7.29;80.15;95095.28;5008554;28;20045;-64
2021/01/30 12:13:39;;;;;;;8.45;2.92;;;;;;;7.19;80.96;95098.78;5020937;28;20076;-63